Time;durP1;ratioP1;P1;durP2;ratioP2;P2;SDS_P1;SDS_P2;PMS_P1;PMS_P2;Temp;Humidity;BMP_temperature;BMP_pressure;BME280_temperature;BME280_humidity;BME280_pressure;Samples;Min_cycle;Max_cycle;Signal;HPM_P1;HPM_P2
2023/12/09 00:01:32;;;;;;;23.70;2.95;;;;;;;;;;5049646;28;20037;-66
2023/12/09 00:03:57;;;;;;;16.38;3.95;;;;;;;;;;5044249;28;20071;-65
2023/12/09 00:06:22;;;;;;;22.10;2.60;;;;;;;;;;5052661;28;20389;-67
2023/12/09 00:08:49;;;;;;;21.40;1.83;;;;;;;;;;5053448;28;20404;-66
2023/12/09 00:11:15;;;;;;;15.52;1.83;;;;;;;;;;5052053;28;20041;-66
2023/12/09 00:13:40;;;;;;;24.60;2.42;;;;;;;;;;5052056;28;20090;-67
2023/12/09 00:16:06;;;;;;;26.23;2.60;;;;;;;;;;5051846;28;20048;-66
2023/12/09 00:18:31;;;;;;;15.40;2.03;;;;;;;;;;5053287;28;20037;-66
2023/12/09 00:20:56;;;;;;;20.67;2.55;;;;;;;;;;5049845;28;20063;-66
2023/12/09 00:23:22;;;;;;;28.17;3.10;;;;;;;;;;5052964;28;20431;-66
2023/12/09 00:25:47;;;;;;;14.75;2.28;;;;;;;;;;5052826;28;20602;-66
2023/12/09 00:28:12;;;;;;;26.08;3.10;;;;;;;;;;5043631;28;20516;-66
2023/12/09 00:30:38;;;;;;;18.73;2.83;;;;;;;;;;5052776;28;20043;-65
2023/12/09 00:33:03;;;;;;;19.00;2.03;;;;;;;;;;5052927;28;20040;-67
2023/12/09 00:35:28;;;;;;;19.00;2.40;;;;;;;;;;5049816;28;20055;-66
2023/12/09 00:37:54;;;;;;;17.65;1.83;;;;;;;;;;5052864;28;20376;-66
2023/12/09 00:40:19;;;;;;;12.90;1.85;;;;;;;;;;5052940;28;20610;-66
2023/12/09 00:42:48;;;;;;;17.92;2.03;;;;;;;;;;5052441;28;20491;-66
2023/12/09 00:45:14;;;;;;;17.33;2.00;;;;;;;;;;5047002;28;20120;-67
2023/12/09 00:47:39;;;;;;;24.02;3.15;;;;;;;;;;5052639;28;20171;-65
2023/12/09 00:50:05;;;;;;;18.77;2.33;;;;;;;;;;5052695;28;20120;-66
2023/12/09 00:52:31;;;;;;;12.88;1.77;;;;;;;;;;5052447;28;20037;-66
2023/12/09 00:54:56;;;;;;;26.10;2.75;;;;;;;;;;5052387;28;20068;-66
2023/12/09 00:57:24;;;;;;;17.90;1.48;;;;;;;;;;5052088;28;20029;-66
2023/12/09 00:59:49;;;;;;;20.60;1.83;;;;;;;;;;5052371;28;20128;-67
2023/12/09 01:02:14;;;;;;;13.48;1.88;;;;;;;;;;5052040;28;20175;-66
2023/12/09 01:04:40;;;;;;;19.10;2.20;;;;;;;;;;5052330;28;20033;-66
2023/12/09 01:07:05;;;;;;;21.90;1.75;;;;;;;;;;5052336;28;20495;-66
2023/12/09 01:09:30;;;;;;;18.83;2.45;;;;;;;;;;5051156;28;20425;-66
2023/12/09 01:11:56;;;;;;;16.63;1.75;;;;;;;;;;5052058;28;20033;-66
2023/12/09 01:14:21;;;;;;;15.43;1.88;;;;;;;;;;5050736;28;20043;-66
2023/12/09 01:16:46;;;;;;;7.13;1.48;;;;;;;;;;5049535;28;20096;-66
2023/12/09 01:19:12;;;;;;;15.13;1.83;;;;;;;;;;5047720;28;20542;-65
2023/12/09 01:21:37;;;;;;;26.40;2.47;;;;;;;;;;5051757;28;20477;-66
2023/12/09 01:24:04;;;;;;;13.30;2.05;;;;;;;;;;5052276;28;20091;-65
2023/12/09 01:26:30;;;;;;;11.98;2.10;;;;;;;;;;5048382;28;20459;-66
2023/12/09 01:28:55;;;;;;;12.23;1.80;;;;;;;;;;5050889;28;20124;-66
2023/12/09 01:31:20;;;;;;;5.93;1.27;;;;;;;;;;5051347;28;20505;-66
2023/12/09 01:33:46;;;;;;;15.02;1.77;;;;;;;;;;5051547;28;20033;-66
2023/12/09 01:36:11;;;;;;;10.52;1.48;;;;;;;;;;5051667;28;20072;-67
2023/12/09 01:38:36;;;;;;;10.98;2.30;;;;;;;;;;5050506;28;20055;-66
2023/12/09 01:41:02;;;;;;;8.75;1.30;;;;;;;;;;5051163;28;20473;-66
2023/12/09 01:43:27;;;;;;;8.45;1.42;;;;;;;;;;5051648;28;20037;-65
2023/12/09 01:45:54;;;;;;;15.35;2.15;;;;;;;;;;5051443;28;20432;-66
2023/12/09 01:48:19;;;;;;;22.67;2.78;;;;;;;;;;5049559;28;20107;-66
2023/12/09 01:50:45;;;;;;;10.65;1.73;;;;;;;;;;5051337;28;20044;-66
2023/12/09 01:53:10;;;;;;;10.95;1.52;;;;;;;;;;5043178;28;20051;-66
2023/12/09 01:55:37;;;;;;;19.77;2.15;;;;;;;;;;5049970;28;20040;-65
2023/12/09 01:58:03;;;;;;;8.88;1.33;;;;;;;;;;5048167;28;20062;-66
2023/12/09 02:00:29;;;;;;;15.15;1.80;;;;;;;;;;5051136;28;20637;-66
2023/12/09 02:02:54;;;;;;;16.65;1.75;;;;;;;;;;5050615;28;20029;-67
2023/12/09 02:05:20;;;;;;;15.85;1.48;;;;;;;;;;5050167;28;20039;-67
2023/12/09 02:07:45;;;;;;;12.15;1.70;;;;;;;;;;5049737;28;20070;-66
2023/12/09 02:10:11;;;;;;;13.82;2.60;;;;;;;;;;5050833;28;20108;-66
2023/12/09 02:13:04;;;;;;;13.07;1.55;;;;;;;;;;5049573;28;20068;-66
2023/12/09 02:15:49;;;;;;;4.38;1.38;;;;;;;;;;5049396;28;20079;-66
2023/12/09 02:18:16;;;;;;;14.85;1.63;;;;;;;;;;5039595;28;20040;-66
2023/12/09 02:20:42;;;;;;;12.20;1.55;;;;;;;;;;5050648;28;20040;-65
2023/12/09 02:23:08;;;;;;;10.10;1.45;;;;;;;;;;5050758;28;20095;-66
2023/12/09 02:25:34;;;;;;;11.75;1.17;;;;;;;;;;5048622;28;20041;-65
2023/12/09 02:28:22;;;;;;;11.65;1.52;;;;;;;;;;5046827;28;20443;-65
2023/12/09 02:31:14;;;;;;;13.75;1.30;;;;;;;;;;5048930;28;20080;-67
2023/12/09 02:33:45;;;;;;;22.90;1.50;;;;;;;;;;5045386;28;20183;-66
2023/12/09 02:36:17;;;;;;;8.07;1.75;;;;;;;;;;5048743;28;20051;-66
2023/12/09 02:38:42;;;;;;;13.02;1.67;;;;;;;;;;5049207;28;20037;-67
2023/12/09 02:41:08;;;;;;;11.27;1.33;;;;;;;;;;5048644;28;20052;-66
2023/12/09 02:43:33;;;;;;;8.05;1.30;;;;;;;;;;5049277;28;20113;-66
2023/12/09 02:45:59;;;;;;;13.93;2.30;;;;;;;;;;5048728;28;20044;-66
2023/12/09 02:48:24;;;;;;;8.00;1.70;;;;;;;;;;5050394;28;20076;-65
2023/12/09 02:50:50;;;;;;;12.90;1.60;;;;;;;;;;5047721;28;20075;-66
2023/12/09 02:53:15;;;;;;;4.88;1.17;;;;;;;;;;5048792;28;20037;-66
2023/12/09 02:55:40;;;;;;;14.60;1.65;;;;;;;;;;5043922;28;20045;-66
2023/12/09 02:58:06;;;;;;;16.65;1.42;;;;;;;;;;5049755;28;20029;-66
2023/12/09 03:00:31;;;;;;;10.48;1.50;;;;;;;;;;5050048;28;20465;-67
2023/12/09 03:02:56;;;;;;;10.60;1.83;;;;;;;;;;5050226;28;20584;-67
2023/12/09 03:05:22;;;;;;;11.40;1.70;;;;;;;;;;5049133;28;20104;-66
2023/12/09 03:07:47;;;;;;;13.40;1.20;;;;;;;;;;5049502;28;20044;-65
2023/12/09 03:10:12;;;;;;;17.38;1.70;;;;;;;;;;5050081;28;20033;-67
2023/12/09 03:12:38;;;;;;;13.05;1.27;;;;;;;;;;5048778;28;20063;-67
2023/12/09 03:15:05;;;;;;;7.00;1.20;;;;;;;;;;5048844;28;20037;-66
2023/12/09 03:17:32;;;;;;;10.45;1.45;;;;;;;;;;5050104;28;20043;-66
2023/12/09 03:19:58;;;;;;;11.40;1.67;;;;;;;;;;5050116;28;20557;-66
2023/12/09 03:22:23;;;;;;;6.47;1.30;;;;;;;;;;5049636;28;20040;-66
2023/12/09 03:24:49;;;;;;;2.65;0.80;;;;;;;;;;5048386;28;20025;-66
2023/12/09 03:27:14;;;;;;;7.40;1.10;;;;;;;;;;5048703;28;20461;-68
2023/12/09 03:29:40;;;;;;;8.65;1.35;;;;;;;;;;5050078;28;20040;-66
2023/12/09 03:32:06;;;;;;;8.73;1.40;;;;;;;;;;5049369;28;20086;-66
2023/12/09 03:34:31;;;;;;;11.57;1.10;;;;;;;;;;5050032;28;20037;-66
2023/12/09 03:36:56;;;;;;;7.13;1.25;;;;;;;;;;5049932;28;20110;-67
2023/12/09 03:39:22;;;;;;;6.88;1.75;;;;;;;;;;5048690;28;20032;-66
2023/12/09 03:41:47;;;;;;;8.18;1.10;;;;;;;;;;5049545;28;20476;-66
2023/12/09 03:44:12;;;;;;;14.38;1.10;;;;;;;;;;5049873;28;20048;-66
2023/12/09 03:46:38;;;;;;;11.60;1.75;;;;;;;;;;5049606;28;20037;-66
2023/12/09 03:49:03;;;;;;;7.20;1.15;;;;;;;;;;5046867;28;20044;-66
2023/12/09 03:51:28;;;;;;;5.30;1.20;;;;;;;;;;5045696;28;20045;-68
2023/12/09 03:53:54;;;;;;;6.63;1.15;;;;;;;;;;5049806;28;20045;-66
2023/12/09 03:56:21;;;;;;;11.85;1.40;;;;;;;;;;5049487;28;20033;-66
2023/12/09 03:58:47;;;;;;;14.70;1.30;;;;;;;;;;5049684;28;20041;-66
2023/12/09 04:01:12;;;;;;;7.28;1.00;;;;;;;;;;5049647;28;20037;-66
2023/12/09 04:03:38;;;;;;;6.82;1.13;;;;;;;;;;5049838;28;20436;-66
2023/12/09 04:06:05;;;;;;;5.53;1.10;;;;;;;;;;5049357;28;20485;-66
2023/12/09 04:08:30;;;;;;;9.55;1.40;;;;;;;;;;5049086;28;20047;-65
2023/12/09 04:10:56;;;;;;;10.80;1.10;;;;;;;;;;5048306;28;20629;-66
2023/12/09 04:13:21;;;;;;;5.47;1.17;;;;;;;;;;5049823;28;20044;-67
2023/12/09 04:15:47;;;;;;;8.75;1.10;;;;;;;;;;5049368;28;20037;-67
2023/12/09 04:18:12;;;;;;;5.53;1.52;;;;;;;;;;5053321;28;20115;-67
2023/12/09 04:20:38;;;;;;;7.72;1.13;;;;;;;;;;5052968;28;20040;-66
2023/12/09 04:23:04;;;;;;;10.32;1.52;;;;;;;;;;5052993;28;20079;-66
2023/12/09 04:25:30;;;;;;;6.60;1.10;;;;;;;;;;5051993;28;20040;-66
2023/12/09 04:27:55;;;;;;;9.60;1.20;;;;;;;;;;5052716;28;20041;-66
2023/12/09 04:30:23;;;;;;;6.63;1.10;;;;;;;;;;5053039;28;20052;-66
2023/12/09 04:32:49;;;;;;;10.05;1.10;;;;;;;;;;5052894;28;20037;-67
2023/12/09 04:35:14;;;;;;;9.18;1.27;;;;;;;;;;5052863;28;20041;-66
2023/12/09 04:37:40;;;;;;;7.82;1.00;;;;;;;;;;5052750;28;20162;-66
2023/12/09 04:40:09;;;;;;;4.57;0.90;;;;;;;;;;5053030;28;20162;-66
2023/12/09 04:42:35;;;;;;;5.47;0.80;;;;;;;;;;5052610;28;20072;-67
2023/12/09 04:45:00;;;;;;;8.98;1.45;;;;;;;;;;5051893;28;20070;-67
2023/12/09 04:47:26;;;;;;;5.07;1.17;;;;;;;;;;5052796;28;20071;-67
2023/12/09 04:49:51;;;;;;;9.73;1.40;;;;;;;;;;5052131;28;20048;-66
2023/12/09 04:52:16;;;;;;;5.10;0.95;;;;;;;;;;5052427;28;20506;-67
2023/12/09 04:54:41;;;;;;;6.32;1.15;;;;;;;;;;5052629;28;20520;-66
2023/12/09 04:57:07;;;;;;;12.45;1.20;;;;;;;;;;5052119;28;20114;-68
2023/12/09 04:59:33;;;;;;;9.02;0.80;;;;;;;;;;5051274;28;20048;-66
2023/12/09 05:01:58;;;;;;;3.63;0.70;;;;;;;;;;5052185;28;20031;-66
2023/12/09 05:04:24;;;;;;;1.77;0.80;;;;;;;;;;5051914;28;20118;-67
2023/12/09 05:06:49;;;;;;;2.75;0.70;;;;;;;;;;5052148;28;20045;-66
2023/12/09 05:09:14;;;;;;;4.45;0.65;;;;;;;;;;5051839;28;20061;-66
2023/12/09 05:11:40;;;;;;;1.25;0.57;;;;;;;;;;5051965;28;20069;-66
2023/12/09 05:14:06;;;;;;;6.32;0.80;;;;;;;;;;5052359;28;20044;-67
2023/12/09 05:16:34;;;;;;;5.28;0.60;;;;;;;;;;5051444;28;20037;-66
2023/12/09 05:19:00;;;;;;;3.58;0.70;;;;;;;;;;5052023;28;20106;-67
2023/12/09 05:21:25;;;;;;;4.20;0.90;;;;;;;;;;5052021;28;20051;-66
2023/12/09 05:23:50;;;;;;;4.95;0.70;;;;;;;;;;5046528;28;20627;-66
2023/12/09 05:26:23;;;;;;;9.05;0.73;;;;;;;;;;5051394;28;20055;-66
2023/12/09 05:28:49;;;;;;;2.95;0.80;;;;;;;;;;5040047;28;20128;-67
2023/12/09 05:31:15;;;;;;;2.45;0.60;;;;;;;;;;5066220;28;20060;-66
2023/12/09 05:33:40;;;;;;;2.72;0.60;;;;;;;;;;5044627;28;20036;-66
2023/12/09 05:36:06;;;;;;;8.40;0.88;;;;;;;;;;5051556;28;20036;-66
2023/12/09 05:38:31;;;;;;;2.85;0.52;;;;;;;;;;5042345;28;20040;-66
2023/12/09 05:40:57;;;;;;;3.42;0.70;;;;;;;;;;5051402;28;20052;-66
2023/12/09 05:43:22;;;;;;;10.55;0.90;;;;;;;;;;5051671;28;20044;-66
2023/12/09 05:45:47;;;;;;;2.85;0.70;;;;;;;;;;5051586;28;20033;-68
2023/12/09 05:48:13;;;;;;;3.72;0.73;;;;;;;;;;5051659;28;20051;-66
2023/12/09 05:50:38;;;;;;;3.47;0.50;;;;;;;;;;5051410;28;20090;-66
2023/12/09 05:53:03;;;;;;;13.75;0.90;;;;;;;;;;5051576;28;20037;-66
2023/12/09 05:55:29;;;;;;;0.75;0.38;;;;;;;;;;5051376;28;20154;-66
2023/12/09 05:57:54;;;;;;;1.92;0.63;;;;;;;;;;5051149;28;20119;-66
2023/12/09 06:00:19;;;;;;;2.20;0.60;;;;;;;;;;5051251;28;20117;-66
2023/12/09 06:02:45;;;;;;;2.50;0.38;;;;;;;;;;5051190;28;20087;-66
2023/12/09 06:05:10;;;;;;;4.20;0.45;;;;;;;;;;5051320;28;20119;-66
2023/12/09 06:07:35;;;;;;;1.30;0.47;;;;;;;;;;5050950;28;20051;-66
2023/12/09 06:10:01;;;;;;;1.02;0.40;;;;;;;;;;5051210;28;20037;-66
2023/12/09 06:12:26;;;;;;;4.15;0.65;;;;;;;;;;5051021;28;20036;-67
2023/12/09 06:14:53;;;;;;;3.92;0.50;;;;;;;;;;5050786;28;20546;-67
2023/12/09 06:17:18;;;;;;;4.28;0.82;;;;;;;;;;5050844;28;20514;-67
2023/12/09 06:19:43;;;;;;;2.65;0.73;;;;;;;;;;5051011;28;20040;-65
2023/12/09 06:22:09;;;;;;;2.25;0.50;;;;;;;;;;5050957;28;20511;-67
2023/12/09 06:24:34;;;;;;;0.98;0.30;;;;;;;;;;5049626;28;20162;-66
2023/12/09 06:26:59;;;;;;;1.85;0.68;;;;;;;;;;5050550;28;20035;-66
2023/12/09 06:29:25;;;;;;;0.77;0.40;;;;;;;;;;5051111;28;20055;-66
2023/12/09 06:31:50;;;;;;;3.70;1.08;;;;;;;;;;5050428;28;20041;-66
2023/12/09 06:34:15;;;;;;;1.50;0.80;;;;;;;;;;5050785;28;20099;-67
2023/12/09 06:36:41;;;;;;;4.65;1.42;;;;;;;;;;5050517;28;20048;-66
2023/12/09 06:39:06;;;;;;;5.00;1.83;;;;;;;;;;5050062;28;20045;-66
2023/12/09 06:41:32;;;;;;;7.07;2.38;;;;;;;;;;5050700;28;20037;-65
2023/12/09 06:43:57;;;;;;;3.28;1.98;;;;;;;;;;5050483;28;20116;-66
2023/12/09 06:46:22;;;;;;;4.47;1.90;;;;;;;;;;5050407;28;20036;-67
2023/12/09 06:48:48;;;;;;;6.13;1.75;;;;;;;;;;5048884;28;20487;-67
2023/12/09 06:51:14;;;;;;;3.42;1.35;;;;;;;;;;5050213;28;20729;-66
2023/12/09 06:53:40;;;;;;;3.65;1.30;;;;;;;;;;5047006;28;20047;-67
2023/12/09 06:56:06;;;;;;;2.72;1.05;;;;;;;;;;5050252;28;20121;-66
2023/12/09 06:58:31;;;;;;;4.88;1.38;;;;;;;;;;5048682;28;20033;-65
2023/12/09 07:00:56;;;;;;;2.47;0.90;;;;;;;;;;5049841;28;20446;-66
2023/12/09 07:03:22;;;;;;;1.77;0.50;;;;;;;;;;5046442;28;20073;-66
2023/12/09 07:05:47;;;;;;;3.03;0.60;;;;;;;;;;5041290;28;20425;-67
2023/12/09 07:08:14;;;;;;;0.68;0.40;;;;;;;;;;5049635;28;20048;-66
2023/12/09 07:10:43;;;;;;;1.30;0.68;;;;;;;;;;5049825;28;20093;-65
2023/12/09 07:13:09;;;;;;;0.60;0.40;;;;;;;;;;5048440;28;20392;-67
2023/12/09 07:15:34;;;;;;;0.50;0.40;;;;;;;;;;5047304;28;20056;-66
2023/12/09 07:17:59;;;;;;;0.22;0.22;;;;;;;;;;5048509;28;20045;-66
2023/12/09 07:20:25;;;;;;;1.25;0.50;;;;;;;;;;5048891;28;20059;-66
2023/12/09 07:22:50;;;;;;;0.40;0.30;;;;;;;;;;5049120;28;20459;-67
2023/12/09 07:25:15;;;;;;;0.43;0.30;;;;;;;;;;5050072;28;20486;-67
2023/12/09 07:27:41;;;;;;;0.63;0.30;;;;;;;;;;5050192;28;20631;-67
2023/12/09 07:30:07;;;;;;;1.95;0.30;;;;;;;;;;5047152;28;20408;-67
2023/12/09 07:32:32;;;;;;;0.35;0.30;;;;;;;;;;5048921;28;20067;-66
2023/12/09 07:34:57;;;;;;;0.40;0.30;;;;;;;;;;5048727;28;20052;-66
2023/12/09 07:37:23;;;;;;;0.90;0.50;;;;;;;;;;5049814;28;20037;-66
2023/12/09 07:39:48;;;;;;;0.52;0.40;;;;;;;;;;5047169;28;20029;-67
2023/12/09 07:42:13;;;;;;;0.52;0.40;;;;;;;;;;5046516;28;20091;-67
2023/12/09 07:44:39;;;;;;;0.40;0.40;;;;;;;;;;5047731;28;20120;-66
2023/12/09 07:47:04;;;;;;;0.80;0.45;;;;;;;;;;5048731;28;20033;-66
2023/12/09 07:49:29;;;;;;;1.13;0.60;;;;;;;;;;5047178;28;20037;-67
2023/12/09 07:51:55;;;;;;;0.40;0.30;;;;;;;;;;5051649;28;20105;-67
2023/12/09 07:54:20;;;;;;;1.08;0.60;;;;;;;;;;5053332;28;20124;-67
2023/12/09 07:56:45;;;;;;;2.47;0.60;;;;;;;;;;5053928;28;20116;-68
2023/12/09 07:59:11;;;;;;;1.27;0.70;;;;;;;;;;5051156;28;20116;-66
2023/12/09 08:01:36;;;;;;;1.08;0.60;;;;;;;;;;5053911;28;20117;-67
2023/12/09 08:04:02;;;;;;;1.48;0.82;;;;;;;;;;5053680;28;20112;-66
2023/12/09 08:06:27;;;;;;;1.65;0.80;;;;;;;;;;5054768;28;20048;-67
2023/12/09 08:08:52;;;;;;;1.58;0.95;;;;;;;;;;5044756;28;20036;-67
2023/12/09 08:11:21;;;;;;;3.38;1.05;;;;;;;;;;5052410;28;20079;-67
2023/12/09 08:13:47;;;;;;;5.25;1.20;;;;;;;;;;5052131;28;20036;-66
2023/12/09 08:16:13;;;;;;;2.42;1.20;;;;;;;;;;5053652;28;20041;-66
2023/12/09 08:18:39;;;;;;;4.85;1.20;;;;;;;;;;5046347;28;20036;-66
2023/12/09 08:21:05;;;;;;;4.95;1.52;;;;;;;;;;5054245;28;20029;-66
2023/12/09 08:23:30;;;;;;;2.42;1.40;;;;;;;;;;5056647;28;20048;-67
2023/12/09 08:25:55;;;;;;;3.72;1.70;;;;;;;;;;5055840;28;20029;-68
2023/12/09 08:28:21;;;;;;;2.90;1.85;;;;;;;;;;5052345;28;20170;-68
2023/12/09 08:30:46;;;;;;;2.30;1.58;;;;;;;;;;5053936;28;20045;-67
2023/12/09 08:33:13;;;;;;;5.28;3.17;;;;;;;;;;5051591;28;20033;-67
2023/12/09 08:35:38;;;;;;;5.13;2.92;;;;;;;;;;5051316;28;20124;-66
2023/12/09 08:38:03;;;;;;;3.22;2.10;;;;;;;;;;5052173;28;20120;-66
2023/12/09 08:40:29;;;;;;;7.38;2.90;;;;;;;;;;5053073;28;20041;-67
2023/12/09 08:42:54;;;;;;;3.05;1.77;;;;;;;;;;5050167;28;20046;-66
2023/12/09 08:45:19;;;;;;;3.75;1.88;;;;;;;;;;5052779;28;20068;-66
2023/12/09 08:47:45;;;;;;;3.78;2.13;;;;;;;;;;5052679;28;20100;-67
2023/12/09 08:50:10;;;;;;;3.80;1.90;;;;;;;;;;5052557;28;20037;-67
2023/12/09 08:52:37;;;;;;;6.30;3.80;;;;;;;;;;5052025;28;20045;-66
2023/12/09 08:55:03;;;;;;;2.58;1.30;;;;;;;;;;5049337;28;20043;-67
2023/12/09 08:57:28;;;;;;;3.42;1.80;;;;;;;;;;5052045;28;20037;-66
2023/12/09 08:59:54;;;;;;;5.15;3.03;;;;;;;;;;5043552;28;20358;-66
2023/12/09 09:02:20;;;;;;;7.72;4.18;;;;;;;;;;5035888;28;20588;-66
2023/12/09 09:04:46;;;;;;;7.90;3.80;;;;;;;;;;5048111;28;20037;-67
2023/12/09 09:07:11;;;;;;;5.85;3.53;;;;;;;;;;5052672;28;20124;-66
2023/12/09 09:09:39;;;;;;;3.47;1.98;;;;;;;;;;5035240;28;20039;-66
2023/12/09 09:12:06;;;;;;;3.35;2.03;;;;;;;;;;5051663;28;20554;-67
2023/12/09 09:14:33;;;;;;;2.63;1.52;;;;;;;;;;5048107;28;20465;-67
2023/12/09 09:16:59;;;;;;;2.00;0.90;;;;;;;;;;5051276;28;20043;-67
2023/12/09 09:19:24;;;;;;;2.40;0.90;;;;;;;;;;5045231;28;20045;-67
2023/12/09 09:21:52;;;;;;;1.67;0.98;;;;;;;;;;5049614;28;20029;-66
2023/12/09 09:24:17;;;;;;;1.75;0.90;;;;;;;;;;5047937;28;20049;-68
2023/12/09 09:26:42;;;;;;;0.90;0.60;;;;;;;;;;5049774;28;20132;-67
2023/12/09 09:29:10;;;;;;;1.70;0.85;;;;;;;;;;5052071;28;20036;-67
2023/12/09 09:31:35;;;;;;;1.48;0.65;;;;;;;;;;5051698;28;20614;-67
2023/12/09 09:34:01;;;;;;;1.67;0.88;;;;;;;;;;5050188;28;20071;-67
2023/12/09 09:36:27;;;;;;;2.92;1.05;;;;;;;;;;5049111;28;20111;-68
2023/12/09 09:38:52;;;;;;;1.90;0.73;;;;;;;;;;5048739;28;20029;-67
2023/12/09 09:41:22;;;;;;;1.98;0.70;;;;;;;;;;5049335;28;20102;-67
2023/12/09 09:43:58;;;;;;;3.08;1.02;;;;;;;;;;5049949;28;20036;-68
2023/12/09 09:46:25;;;;;;;1.50;0.80;;;;;;;;;;5050781;28;20126;-67
2023/12/09 09:48:51;;;;;;;2.15;1.00;;;;;;;;;;5050440;28;20499;-67
2023/12/09 09:51:26;;;;;;;5.32;1.25;;;;;;;;;;5049989;28;20057;-68
2023/12/09 09:54:13;;;;;;;2.67;1.10;;;;;;;;;;5048518;28;20134;-67
2023/12/09 09:56:38;;;;;;;1.77;0.93;;;;;;;;;;5049955;28;20052;-67
2023/12/09 09:59:04;;;;;;;1.70;0.90;;;;;;;;;;5048701;28;20465;-67
2023/12/09 10:01:29;;;;;;;2.13;1.00;;;;;;;;;;5051244;28;20495;-67
2023/12/09 10:03:55;;;;;;;2.33;0.90;;;;;;;;;;5047017;28;20082;-67
2023/12/09 10:06:21;;;;;;;3.80;0.80;;;;;;;;;;5050816;28;20029;-67
2023/12/09 10:08:46;;;;;;;4.00;1.13;;;;;;;;;;5047865;28;20037;-67
2023/12/09 10:11:11;;;;;;;2.33;0.98;;;;;;;;;;5048673;28;20052;-68
2023/12/09 10:13:37;;;;;;;1.85;0.82;;;;;;;;;;5050375;28;20028;-68
2023/12/09 10:16:03;;;;;;;3.55;1.20;;;;;;;;;;5050660;28;20037;-68
2023/12/09 10:18:30;;;;;;;1.50;0.85;;;;;;;;;;5048940;28;20628;-68
2023/12/09 10:20:55;;;;;;;3.55;0.98;;;;;;;;;;5042002;28;20056;-67
2023/12/09 10:23:22;;;;;;;3.97;1.00;;;;;;;;;;5051070;28;20075;-67
2023/12/09 10:25:48;;;;;;;3.25;0.70;;;;;;;;;;5051070;28;20037;-67
2023/12/09 10:28:14;;;;;;;3.38;1.05;;;;;;;;;;5050958;28;20036;-67
2023/12/09 10:30:41;;;;;;;3.10;0.88;;;;;;;;;;5051054;28;20049;-67
2023/12/09 10:33:08;;;;;;;4.82;0.90;;;;;;;;;;5049323;28;20531;-67
2023/12/09 10:35:34;;;;;;;7.55;1.60;;;;;;;;;;5033193;28;20090;-67
2023/12/09 10:38:00;;;;;;;5.28;1.55;;;;;;;;;;5050949;28;20480;-67
2023/12/09 10:40:26;;;;;;;3.97;1.13;;;;;;;;;;5050613;28;20170;-67
2023/12/09 10:42:51;;;;;;;7.43;1.58;;;;;;;;;;5050776;28;20112;-67
2023/12/09 10:45:16;;;;;;;10.45;1.92;;;;;;;;;;5051068;28;20112;-67
2023/12/09 10:47:42;;;;;;;6.82;1.58;;;;;;;;;;5050601;28;20072;-68
2023/12/09 10:50:08;;;;;;;5.13;1.42;;;;;;;;;;5050306;28;20428;-67
2023/12/09 10:52:33;;;;;;;7.60;1.50;;;;;;;;;;5049255;28;20040;-67
2023/12/09 10:54:58;;;;;;;10.10;1.65;;;;;;;;;;5048118;28;20528;-66
2023/12/09 10:57:24;;;;;;;7.88;1.42;;;;;;;;;;5047282;28;20033;-68
2023/12/09 10:59:49;;;;;;;8.65;1.65;;;;;;;;;;5049618;28;20040;-68
2023/12/09 11:02:16;;;;;;;8.65;1.65;;;;;;;;;;5048672;28;20037;-67
2023/12/09 11:04:42;;;;;;;9.32;1.40;;;;;;;;;;5049392;28;20031;-67
2023/12/09 11:07:08;;;;;;;7.53;1.38;;;;;;;;;;5050151;28;20041;-66
2023/12/09 11:09:33;;;;;;;12.52;1.38;;;;;;;;;;5048969;28;20110;-67
2023/12/09 11:11:59;;;;;;;9.32;1.70;;;;;;;;;;5050125;28;20029;-67
2023/12/09 11:14:27;;;;;;;5.07;1.20;;;;;;;;;;5050266;28;20115;-66
2023/12/09 11:16:57;;;;;;;7.18;1.50;;;;;;;;;;5049877;28;20108;-67
2023/12/09 11:19:23;;;;;;;6.03;1.23;;;;;;;;;;5050166;28;20036;-67
2023/12/09 11:21:49;;;;;;;6.82;1.50;;;;;;;;;;5049015;28;20142;-68
2023/12/09 11:24:17;;;;;;;9.10;1.80;;;;;;;;;;5049910;28;20082;-67
2023/12/09 11:26:46;;;;;;;11.13;1.40;;;;;;;;;;5051793;28;20033;-66
2023/12/09 11:29:13;;;;;;;4.70;1.13;;;;;;;;;;5052068;28;20080;-66
2023/12/09 11:31:41;;;;;;;8.77;1.90;;;;;;;;;;5053734;28;20492;-67
2023/12/09 11:34:07;;;;;;;8.57;1.55;;;;;;;;;;5054172;28;20278;-66
2023/12/09 11:36:38;;;;;;;5.78;1.40;;;;;;;;;;5054340;28;20086;-66
2023/12/09 11:39:09;;;;;;;6.93;1.55;;;;;;;;;;5054067;28;20047;-68
2023/12/09 11:41:35;;;;;;;5.63;1.63;;;;;;;;;;5050830;28;20130;-67
2023/12/09 11:44:02;;;;;;;5.93;1.48;;;;;;;;;;5054031;28;20033;-67
2023/12/09 11:46:29;;;;;;;10.85;1.70;;;;;;;;;;5053672;28;20643;-67
2023/12/09 11:48:56;;;;;;;5.75;1.35;;;;;;;;;;5053747;28;20493;-66
2023/12/09 11:51:21;;;;;;;4.70;1.27;;;;;;;;;;5053995;28;20130;-67
2023/12/09 11:53:54;;;;;;;10.23;1.40;;;;;;;;;;5053768;28;20060;-67
2023/12/09 11:56:20;;;;;;;7.97;1.35;;;;;;;;;;5053913;28;20041;-67
2023/12/09 11:58:45;;;;;;;6.35;1.10;;;;;;;;;;5054033;28;20120;-66
2023/12/09 12:01:10;;;;;;;5.50;1.27;;;;;;;;;;5053090;28;20479;-66
2023/12/09 12:03:36;;;;;;;6.75;1.20;;;;;;;;;;5053294;28;20119;-67
2023/12/09 12:06:01;;;;;;;4.50;0.88;;;;;;;;;;5046415;28;20459;-66
2023/12/09 12:08:27;;;;;;;4.25;0.88;;;;;;;;;;5053761;28;20055;-66
2023/12/09 12:10:52;;;;;;;6.22;1.40;;;;;;;;;;5052443;28;20477;-67
2023/12/09 12:13:18;;;;;;;7.35;1.40;;;;;;;;;;5053567;28;20116;-67
2023/12/09 12:15:44;;;;;;;9.35;1.23;;;;;;;;;;5053386;28;20392;-67
2023/12/09 12:18:09;;;;;;;11.63;1.55;;;;;;;;;;5052135;28;20045;-66
2023/12/09 12:20:34;;;;;;;9.43;2.10;;;;;;;;;;5053570;28;20047;-67
2023/12/09 12:23:00;;;;;;;6.28;1.77;;;;;;;;;;5053146;28;20503;-67
2023/12/09 12:25:26;;;;;;;18.75;2.75;;;;;;;;;;5053537;28;20365;-66
2023/12/09 12:27:55;;;;;;;12.38;2.70;;;;;;;;;;5053129;28;20500;-66
2023/12/09 12:30:22;;;;;;;13.93;2.83;;;;;;;;;;5050943;28;20123;-66
2023/12/09 12:32:54;;;;;;;14.35;1.83;;;;;;;;;;5053277;28;20098;-67
2023/12/09 12:35:22;;;;;;;14.55;2.60;;;;;;;;;;5051610;28;20465;-67
2023/12/09 12:37:47;;;;;;;20.65;3.30;;;;;;;;;;5050898;28;20036;-67
2023/12/09 12:40:12;;;;;;;13.85;2.70;;;;;;;;;;5053123;28;20033;-66
2023/12/09 12:42:38;;;;;;;15.55;2.60;;;;;;;;;;5053018;28;20045;-67
2023/12/09 12:45:16;;;;;;;16.00;2.50;;;;;;;;;;5052960;28;20091;-68
2023/12/09 12:47:41;;;;;;;16.45;2.67;;;;;;;;;;5045872;28;20045;-67
2023/12/09 12:50:07;;;;;;;12.00;1.90;;;;;;;;;;5052681;28;20401;-68
2023/12/09 12:52:32;;;;;;;14.98;2.53;;;;;;;;;;5052796;28;20035;-67
2023/12/09 12:54:58;;;;;;;14.50;2.40;;;;;;;;;;5052669;28;20102;-67
2023/12/09 12:57:23;;;;;;;13.52;2.60;;;;;;;;;;5052544;28;20037;-66
2023/12/09 12:59:48;;;;;;;12.13;2.53;;;;;;;;;;5052647;28;20033;-67
2023/12/09 13:02:14;;;;;;;16.88;2.22;;;;;;;;;;5052521;28;20051;-66
2023/12/09 13:04:39;;;;;;;14.95;2.80;;;;;;;;;;5052470;28;20550;-67
2023/12/09 13:07:04;;;;;;;17.65;2.65;;;;;;;;;;5052410;28;20025;-67
2023/12/09 13:09:30;;;;;;;13.20;2.97;;;;;;;;;;5052736;28;20071;-67
2023/12/09 13:11:55;;;;;;;19.52;3.03;;;;;;;;;;5052456;28;20033;-67
2023/12/09 13:14:20;;;;;;;18.20;3.05;;;;;;;;;;5052258;28;20079;-66
2023/12/09 13:16:46;;;;;;;24.58;2.55;;;;;;;;;;5052355;28;20037;-67
2023/12/09 13:19:11;;;;;;;17.15;2.75;;;;;;;;;;5052080;28;20099;-67
2023/12/09 13:21:36;;;;;;;26.33;3.53;;;;;;;;;;5052211;28;20029;-66
2023/12/09 13:24:03;;;;;;;16.10;2.60;;;;;;;;;;5052305;28;20112;-66
2023/12/09 13:26:28;;;;;;;15.25;1.67;;;;;;;;;;5051953;28;20682;-67
2023/12/09 13:28:54;;;;;;;21.35;2.90;;;;;;;;;;5051800;28;20025;-67
2023/12/09 13:31:19;;;;;;;12.98;2.88;;;;;;;;;;5052353;28;20049;-67
2023/12/09 13:33:44;;;;;;;20.95;2.97;;;;;;;;;;5051117;28;20068;-67
2023/12/09 13:36:12;;;;;;;20.33;2.70;;;;;;;;;;5051625;28;20044;-67
2023/12/09 13:38:38;;;;;;;13.13;1.63;;;;;;;;;;5052079;28;20515;-66
2023/12/09 13:41:04;;;;;;;18.30;2.72;;;;;;;;;;5051942;28;20040;-67
2023/12/09 13:43:29;;;;;;;18.02;2.78;;;;;;;;;;5051707;28;20436;-67
2023/12/09 13:45:55;;;;;;;16.58;2.50;;;;;;;;;;5051987;28;20039;-66
2023/12/09 13:48:21;;;;;;;14.80;2.67;;;;;;;;;;5051475;28;20534;-66
2023/12/09 13:50:46;;;;;;;12.10;2.50;;;;;;;;;;5050841;28;20468;-66
2023/12/09 13:53:12;;;;;;;21.05;3.58;;;;;;;;;;5049356;28;20037;-66
2023/12/09 13:55:37;;;;;;;13.88;3.10;;;;;;;;;;5051734;28;20052;-66
2023/12/09 13:58:03;;;;;;;15.05;2.65;;;;;;;;;;5051404;28;20025;-66
2023/12/09 14:00:29;;;;;;;13.63;2.85;;;;;;;;;;5051556;28;20551;-67
2023/12/09 14:02:56;;;;;;;12.95;2.47;;;;;;;;;;5051445;28;20068;-66
2023/12/09 14:05:21;;;;;;;18.73;2.97;;;;;;;;;;5051222;28;20109;-67
2023/12/09 14:07:46;;;;;;;21.40;2.67;;;;;;;;;;5050422;28;20072;-66
2023/12/09 14:10:12;;;;;;;17.00;3.85;;;;;;;;;;5051171;28;20374;-67
2023/12/09 14:12:40;;;;;;;9.60;1.65;;;;;;;;;;5051179;28;20048;-66
2023/12/09 14:15:07;;;;;;;16.20;2.65;;;;;;;;;;5057954;28;20056;-66
2023/12/09 14:17:33;;;;;;;16.80;2.88;;;;;;;;;;5060325;28;20064;-66
2023/12/09 14:19:59;;;;;;;14.80;2.63;;;;;;;;;;5058886;28;20029;-67
2023/12/09 14:22:24;;;;;;;19.63;2.75;;;;;;;;;;5061129;28;20516;-66
2023/12/09 14:24:49;;;;;;;15.68;3.70;;;;;;;;;;5059629;28;20037;-66
2023/12/09 14:27:15;;;;;;;17.90;2.45;;;;;;;;;;5062207;28;20112;-66
2023/12/09 14:29:40;;;;;;;17.63;2.53;;;;;;;;;;5059579;28;20125;-66
2023/12/09 14:32:06;;;;;;;18.05;2.90;;;;;;;;;;5059701;28;20049;-65